Time;durP1;ratioP1;P1;durP2;ratioP2;P2;SDS_P1;SDS_P2;PMS_P1;PMS_P2;Temp;Humidity;BMP_temperature;BMP_pressure;BME280_temperature;BME280_humidity;BME280_pressure;Samples;Min_cycle;Max_cycle;Signal;HPM_P1;HPM_P2
2022/10/08 00:00:47;;;;;;;12.82;7.72;;;14.40;99.90;;;14.05;100.00;97519.69;4998257;28;20438;-47
2022/10/08 00:03:14;;;;;;;10.15;7.20;;;14.40;99.90;;;14.01;100.00;97518.13;4998537;28;20026;-48
2022/10/08 00:05:40;;;;;;;11.18;8.18;;;14.30;99.90;;;13.93;100.00;97521.19;5004828;28;20315;-50
2022/10/08 00:08:08;;;;;;;10.10;6.70;;;14.20;99.90;;;13.81;100.00;97511.16;5009922;28;20088;-47
2022/10/08 00:10:34;;;;;;;9.90;6.78;;;14.20;99.90;;;13.75;100.00;97517.63;4999644;28;20033;-48
2022/10/08 00:13:02;;;;;;;10.50;7.22;;;14.10;99.90;;;13.66;100.00;97518.06;5005274;28;20076;-48
2022/10/08 00:15:28;;;;;;;11.15;7.40;;;14.00;99.90;;;13.55;100.00;97514.13;5011817;28;20040;-46
2022/10/08 00:17:53;;;;;;;9.80;7.13;;;13.90;99.90;;;13.44;100.00;97507.59;5001196;28;20037;-50
2022/10/08 00:20:20;;;;;;;11.10;7.60;;;13.80;99.90;;;13.39;100.00;97521.06;4999904;28;20485;-50
2022/10/08 00:22:47;;;;;;;14.82;7.85;;;13.70;99.90;;;13.35;100.00;97520.34;4984907;28;20195;-49
2022/10/08 00:25:13;;;;;;;10.70;7.53;;;13.70;99.90;;;13.30;100.00;97521.47;4995964;28;20025;-50
2022/10/08 00:27:39;;;;;;;11.98;7.82;;;13.70;99.90;;;13.28;100.00;97518.88;4998400;28;20474;-47
2022/10/08 00:30:06;;;;;;;11.38;8.30;;;13.60;99.90;;;13.27;100.00;97516.31;4991366;28;20029;-48
2022/10/08 00:32:31;;;;;;;11.02;7.90;;;13.60;99.90;;;13.23;100.00;97520.88;4993112;28;20151;-48
2022/10/08 00:34:57;;;;;;;12.80;7.93;;;13.60;99.90;;;13.18;100.00;97517.56;4997670;28;20719;-51
2022/10/08 00:37:24;;;;;;;11.15;7.93;;;13.50;99.90;;;13.12;100.00;97507.28;4990682;28;21361;-49
2022/10/08 00:39:50;;;;;;;13.90;8.13;;;13.50;99.90;;;13.13;100.00;97514.28;5003565;28;20041;-47
2022/10/08 00:42:16;;;;;;;14.68;10.00;;;13.50;99.90;;;13.11;100.00;97513.50;4991312;28;20150;-49
2022/10/08 00:44:57;;;;;;;10.85;8.20;;;13.50;99.90;;;13.11;100.00;97513.50;4998063;28;20479;-50
2022/10/08 00:47:32;;;;;;;11.93;7.88;;;13.40;99.90;;;13.06;100.00;97507.53;4993381;28;20477;-48
2022/10/08 00:50:15;;;;;;;12.85;7.55;;;13.40;99.90;;;13.04;100.00;97515.53;4999736;28;20048;-47
2022/10/08 00:52:52;;;;;;;11.73;8.75;;;13.40;99.90;;;13.02;100.00;97509.47;4993817;28;20532;-49
2022/10/08 00:55:21;;;;;;;13.45;8.57;;;13.40;99.90;;;13.01;100.00;97498.94;4993930;28;20037;-48
2022/10/08 00:57:48;;;;;;;14.57;9.27;;;13.40;99.90;;;12.87;100.00;97479.25;4988646;28;20713;-49
2022/10/08 01:00:22;;;;;;;12.55;8.30;;;13.40;99.90;;;12.99;100.00;97502.53;4997648;28;21148;-47
2022/10/08 01:02:48;;;;;;;12.07;7.43;;;13.40;99.90;;;12.98;100.00;97495.50;4999390;28;20038;-51
2022/10/08 01:05:18;;;;;;;10.52;7.30;;;13.40;99.90;;;12.98;100.00;97506.09;4992733;28;20064;-49
2022/10/08 01:07:58;;;;;;;11.45;7.95;;;13.40;99.90;;;13.01;100.00;97505.13;4992599;28;20034;-48
2022/10/08 01:10:45;;;;;;;12.90;7.78;;;13.40;99.90;;;13.04;100.00;97497.00;4991029;28;20025;-51
2022/10/08 01:13:23;;;;;;;10.35;7.53;;;13.40;99.90;;;13.07;100.00;97502.19;4989924;28;20454;-47
2022/10/08 01:16:10;;;;;;;15.52;7.93;;;13.40;99.90;;;13.12;100.00;97491.38;4989535;28;20121;-47
2022/10/08 01:18:54;;;;;;;10.55;7.15;;;13.50;99.90;;;13.15;100.00;97497.41;4999614;28;20030;-47
2022/10/08 01:21:46;;;;;;;13.70;8.55;;;13.50;99.90;;;13.21;100.00;97492.72;4995698;28;20471;-50
2022/10/08 01:27:41;;;;;;;12.63;6.97;;;13.60;99.90;;;13.22;100.00;97483.88;4996129;28;20362;-47
2022/10/08 01:30:14;;;;;;;9.65;7.30;;;13.60;99.90;;;13.26;100.00;97494.25;4996809;28;20036;-47
2022/10/08 01:32:49;;;;;;;10.50;7.72;;;13.60;99.90;;;13.28;100.00;97486.22;4995478;28;20426;-51
2022/10/08 01:35:27;;;;;;;13.48;7.38;;;13.60;99.90;;;13.30;100.00;97490.53;5001149;28;20017;-51
2022/10/08 01:37:55;;;;;;;11.07;8.20;;;13.60;99.90;;;13.33;100.00;97497.50;4994614;28;20076;-48
2022/10/08 01:40:28;;;;;;;11.60;7.45;;;13.70;99.90;;;13.36;100.00;97494.72;5010042;28;20034;-51
2022/10/08 01:42:57;;;;;;;11.10;7.93;;;13.70;99.90;;;13.39;100.00;97493.69;4998377;28;20153;-50
2022/10/08 01:45:31;;;;;;;10.40;7.13;;;13.70;99.90;;;13.39;100.00;97494.56;4994597;28;20454;-49
2022/10/08 01:48:00;;;;;;;11.93;6.57;;;13.70;99.90;;;13.39;100.00;97488.41;5007251;28;20167;-49
2022/10/08 01:50:33;;;;;;;8.68;6.70;;;13.70;99.90;;;13.36;100.00;97489.41;5004036;28;20603;-48
2022/10/08 01:53:03;;;;;;;;;;;13.70;99.90;;;13.35;100.00;97483.28;4994510;28;20086;-48
2022/10/08 01:55:38;;;;;;;8.60;6.82;;;13.70;99.90;;;13.36;100.00;97479.66;4991858;28;19924;-50
2022/10/08 01:58:13;;;;;;;10.38;6.72;;;13.70;99.90;;;13.35;100.00;97477.97;5001130;28;20025;-48
2022/10/08 02:00:41;;;;;;;8.98;6.80;;;13.70;99.90;;;13.34;100.00;97476.25;4999518;28;20042;-50
2022/10/08 02:03:10;;;;;;;7.72;6.10;;;13.70;99.90;;;13.31;100.00;97470.22;4996137;28;20037;-50
2022/10/08 02:05:40;;;;;;;7.90;6.00;;;13.70;99.90;;;13.31;100.00;97473.72;4997170;28;20513;-51
2022/10/08 02:08:06;;;;;;;7.80;5.97;;;13.70;99.90;;;13.32;100.00;97471.97;4999031;28;20187;-49
2022/10/08 02:10:32;;;;;;;8.82;6.00;;;13.60;99.90;;;13.30;100.00;97472.00;4996220;28;20549;-49
2022/10/08 02:12:58;;;;;;;7.15;5.60;;;13.60;99.90;;;13.28;100.00;97471.22;4996748;28;20596;-51
2022/10/08 02:16:05;;;;;;;10.02;5.10;;;13.60;99.90;;;13.26;100.00;97481.03;5009677;28;20068;-51
2022/10/08 02:18:43;;;;;;;9.60;6.43;;;13.60;99.90;;;13.25;100.00;97474.00;5002765;28;20439;-47
2022/10/08 02:21:19;;;;;;;7.28;5.70;;;13.60;99.90;;;13.25;100.00;97473.16;4977301;28;20415;-48
2022/10/08 02:24:13;;;;;;;10.50;6.90;;;13.60;99.90;;;13.23;100.00;97467.06;4994436;28;20037;-49
2022/10/08 02:26:53;;;;;;;10.30;6.00;;;13.50;99.90;;;13.21;100.00;97455.66;4999919;28;20033;-50
2022/10/08 02:29:36;;;;;;;11.40;7.05;;;13.50;99.90;;;13.18;100.00;97459.31;5003639;28;20107;-50
2022/10/08 02:32:12;;;;;;;9.98;6.82;;;13.50;99.90;;;13.21;100.00;97469.78;5004988;28;20025;-51
2022/10/08 02:34:46;;;;;;;7.88;5.40;;;13.50;99.90;;;13.13;100.00;97453.38;4986921;28;20461;-46
2022/10/08 02:37:20;;;;;;;10.00;6.43;;;13.50;99.90;;;13.19;100.00;97455.75;5000442;28;20053;-50
2022/10/08 02:39:59;;;;;;;14.27;6.53;;;13.60;99.90;;;13.25;100.00;97457.25;4990525;28;20070;-50
2022/10/08 02:42:27;;;;;;;9.65;6.15;;;13.60;99.90;;;13.28;100.00;97463.25;4996279;28;20029;-48
2022/10/08 02:45:06;;;;;;;11.75;6.30;;;13.60;99.90;;;13.25;100.00;97468.69;5003652;28;20038;-48
2022/10/08 02:47:36;;;;;;;6.38;5.47;;;13.60;99.90;;;13.22;100.00;97473.28;5000267;28;20041;-48
2022/10/08 02:50:10;;;;;;;10.82;5.93;;;13.50;99.90;;;13.15;100.00;97465.63;4999421;28;20240;-50
2022/10/08 02:52:40;;;;;;;9.75;5.93;;;13.50;99.90;;;13.13;100.00;97471.91;5009973;28;22260;-49
2022/10/08 02:55:21;;;;;;;8.80;5.80;;;13.50;99.90;;;13.12;100.00;97475.50;4992483;28;20037;-52
2022/10/08 02:57:57;;;;;;;8.50;5.85;;;13.50;99.90;;;13.06;100.00;97468.66;4995480;28;20029;-50
2022/10/08 03:00:23;;;;;;;7.00;5.53;;;13.40;99.90;;;13.08;100.00;97471.25;4994415;28;20167;-49
2022/10/08 03:03:02;;;;;;;10.52;5.90;;;13.40;99.90;;;13.05;100.00;97474.91;4984808;28;20487;-49
2022/10/08 03:05:28;;;;;;;8.35;5.50;;;13.40;99.90;;;13.01;100.00;97478.63;4997855;28;20267;-50
2022/10/08 03:07:55;;;;;;;7.97;5.40;;;13.40;99.90;;;12.97;100.00;97472.63;4992056;28;22616;-48
2022/10/08 03:10:24;;;;;;;8.30;5.43;;;13.30;99.90;;;12.95;100.00;97473.59;4991808;28;20044;-50
2022/10/08 03:12:52;;;;;;;7.85;5.65;;;13.30;99.90;;;12.92;100.00;97473.72;4996765;28;20116;-50
2022/10/08 03:15:18;;;;;;;9.68;6.25;;;13.30;99.90;;;12.96;100.00;97484.13;4995595;28;20041;-49
2022/10/08 03:17:46;;;;;;;9.02;6.20;;;13.30;99.90;;;12.94;100.00;97478.06;5009380;23;20028;-47
2022/10/08 03:20:12;;;;;;;7.85;6.10;;;13.30;99.90;;;12.99;100.00;97491.94;4967271;28;20498;-44
2022/10/08 03:22:39;;;;;;;7.95;5.55;;;13.30;99.90;;;12.97;100.00;97490.28;4959474;28;20183;-47
2022/10/08 03:25:05;;;;;;;5.90;5.10;;;13.30;99.90;;;12.96;100.00;97486.78;4982286;28;20034;-48
2022/10/08 03:27:31;;;;;;;6.93;5.78;;;13.30;99.90;;;12.99;100.00;97493.72;4975021;28;20514;-48
2022/10/08 03:29:56;;;;;;;11.15;5.43;;;13.30;99.90;;;12.99;100.00;97491.06;4959389;28;20125;-46
2022/10/08 03:32:24;;;;;;;7.80;5.68;;;13.30;99.90;;;13.04;100.00;97499.66;4962048;28;20039;-46
2022/10/08 03:34:49;;;;;;;6.70;5.40;;;13.40;99.90;;;13.08;100.00;97498.63;4949396;28;20116;-46
2022/10/08 03:37:15;;;;;;;10.05;6.38;;;13.40;99.90;;;13.11;100.00;97489.66;4951201;28;20041;-47
2022/10/08 03:39:42;;;;;;;10.15;6.50;;;13.50;99.90;;;13.20;100.00;97501.63;4951686;28;21007;-49
2022/10/08 03:42:08;;;;;;;7.55;5.88;;;13.50;99.90;;;13.20;100.00;97510.41;4965262;28;20092;-48
2022/10/08 03:44:34;;;;;;;7.65;5.53;;;13.50;99.90;;;13.21;100.00;97511.25;4946900;28;20683;-45
2022/10/08 03:47:00;;;;;;;5.70;5.10;;;13.50;99.90;;;13.20;100.00;97514.84;4958993;28;20239;-45
2022/10/08 03:49:25;;;;;;;6.82;5.22;;;13.50;99.90;;;13.20;100.00;97526.31;4964986;28;20372;-47
2022/10/08 03:51:51;;;;;;;9.27;5.72;;;13.50;99.90;;;13.24;100.00;97519.94;4971179;28;20467;-45
2022/10/08 03:54:17;;;;;;;11.55;5.38;;;13.60;99.90;;;13.28;100.00;97533.88;4969270;28;20023;-46
2022/10/08 03:56:42;;;;;;;11.75;5.30;;;13.60;99.90;;;13.32;100.00;97530.22;4967390;28;20034;-48
2022/10/08 03:59:08;;;;;;;8.23;5.22;;;13.70;99.90;;;13.31;100.00;97524.06;4970653;28;20771;-47
2022/10/08 04:01:34;;;;;;;6.80;4.90;;;13.70;99.90;;;13.32;100.00;97525.78;4965573;28;20042;-47
2022/10/08 04:04:00;;;;;;;7.05;4.95;;;13.70;99.90;;;13.31;100.00;97531.16;4962839;28;20838;-46
2022/10/08 04:06:26;;;;;;;9.57;4.95;;;13.70;99.90;;;13.28;100.00;97533.88;4967252;28;20121;-46
2022/10/08 04:08:52;;;;;;;8.98;5.07;;;13.60;99.90;;;13.23;100.00;97530.63;4961716;28;20034;-46
2022/10/08 04:11:19;;;;;;;5.78;4.93;;;13.60;99.90;;;13.05;100.00;97506.69;4959677;28;20510;-45
2022/10/08 04:13:44;;;;;;;7.00;4.60;;;13.50;99.90;;;13.18;100.00;97531.66;4964200;28;20046;-48
2022/10/08 04:16:14;;;;;;;8.00;5.45;;;13.50;99.90;;;13.13;100.00;97536.31;4964916;28;20022;-46
2022/10/08 04:18:41;;;;;;;8.25;5.85;;;13.50;99.90;;;13.07;100.00;97531.31;4966666;28;20042;-45
2022/10/08 04:21:11;;;;;;;6.22;5.50;;;13.40;99.90;;;13.01;100.00;97534.25;4963677;28;21252;-46
2022/10/08 04:23:38;;;;;;;7.35;5.50;;;13.30;99.90;;;12.97;100.00;97535.28;4963172;28;20038;-45
2022/10/08 04:26:05;;;;;;;7.22;5.35;;;13.30;99.90;;;12.88;100.00;97525.09;4962560;28;20049;-46
2022/10/08 04:28:31;;;;;;;8.40;5.40;;;13.30;99.90;;;12.91;100.00;97540.84;4965755;28;20042;-47
2022/10/08 04:31:08;;;;;;;6.28;5.55;;;13.20;99.90;;;12.90;100.00;97545.31;4961161;28;20668;-46
2022/10/08 04:33:35;;;;;;;6.05;5.22;;;13.20;99.90;;;12.89;100.00;97545.38;4965447;28;20030;-45
2022/10/08 04:36:11;;;;;;;10.00;6.18;;;13.20;99.90;;;12.89;100.00;97543.56;4974900;28;20460;-47
2022/10/08 04:38:37;;;;;;;8.23;5.78;;;13.20;99.90;;;12.88;100.00;97546.28;4966943;28;20062;-44
2022/10/08 04:41:11;;;;;;;7.30;5.13;;;13.20;99.90;;;12.90;100.00;97547.94;4967425;28;20128;-44
2022/10/08 04:43:39;;;;;;;7.50;5.30;;;13.20;99.90;;;12.88;100.00;97551.56;4965053;28;20039;-45
2022/10/08 04:46:08;;;;;;;10.75;5.95;;;13.20;99.90;;;12.89;100.00;97550.66;4969031;28;20344;-46
2022/10/08 04:48:34;;;;;;;12.98;7.82;;;13.20;99.90;;;12.91;100.00;97554.94;4962141;28;20054;-46
2022/10/08 04:51:02;;;;;;;10.02;6.75;;;13.30;99.90;;;12.92;100.00;97548.72;4956058;28;20038;-46
2022/10/08 04:53:28;;;;;;;13.32;6.20;;;13.30;99.90;;;12.91;100.00;97544.34;4964913;28;20026;-46
2022/10/08 04:55:55;;;;;;;13.00;6.57;;;13.30;99.90;;;12.95;100.00;97551.22;4961551;28;20105;-45
2022/10/08 04:58:24;;;;;;;9.25;6.53;;;13.30;99.90;;;12.95;100.00;97553.03;4945906;28;20491;-46
2022/10/08 05:00:50;;;;;;;9.38;6.50;;;13.30;99.90;;;12.92;100.00;97551.38;4961939;28;20034;-45
2022/10/08 05:03:16;;;;;;;13.13;6.95;;;13.30;99.90;;;12.89;100.00;97558.59;4962355;28;20509;-46
2022/10/08 05:05:44;;;;;;;9.55;5.90;;;13.30;99.90;;;12.75;100.00;97557.41;4958706;28;20157;-46
2022/10/08 05:08:11;;;;;;;11.52;6.85;;;13.20;99.90;;;12.67;100.00;97567.47;4951973;28;20509;-47
2022/10/08 05:10:37;;;;;;;8.15;5.97;;;13.10;99.90;;;12.54;100.00;97560.97;4945202;28;20038;-47
2022/10/08 05:13:03;;;;;;;10.23;6.43;;;13.00;99.90;;;12.48;100.00;97564.72;4958628;28;20390;-45
2022/10/08 05:15:29;;;;;;;7.47;6.05;;;12.90;99.90;;;12.46;100.00;97568.38;4943736;28;20057;-45
2022/10/08 05:17:54;;;;;;;7.32;5.65;;;12.90;99.90;;;12.46;100.00;97571.00;4948859;28;20566;-46
2022/10/08 05:20:20;;;;;;;10.98;6.32;;;12.90;99.90;;;12.43;100.00;97565.84;4964016;28;20030;-46
2022/10/08 05:22:46;;;;;;;11.85;6.85;;;12.80;99.90;;;12.40;100.00;97570.34;4960164;28;20030;-47
2022/10/08 05:25:12;;;;;;;13.02;7.10;;;12.80;99.90;;;12.37;100.00;97577.53;4963770;28;20038;-45
2022/10/08 05:27:38;;;;;;;12.10;7.40;;;12.70;99.90;;;12.29;100.00;97572.59;4963927;28;20037;-46
2022/10/08 05:30:05;;;;;;;10.23;6.70;;;12.70;99.90;;;12.23;100.00;97573.66;4974722;28;20039;-47
2022/10/08 05:32:30;;;;;;;13.55;7.13;;;12.70;99.90;;;12.14;100.00;97565.25;4965045;28;20566;-47
2022/10/08 05:34:56;;;;;;;11.88;6.68;;;12.60;99.90;;;12.13;100.00;97563.53;4955879;28;20805;-47
2022/10/08 05:37:22;;;;;;;17.15;7.95;;;12.60;99.90;;;12.14;100.00;97575.84;4969827;28;20034;-47
2022/10/08 05:39:48;;;;;;;11.02;7.72;;;12.50;99.90;;;12.10;100.00;97580.38;4966309;28;20101;-46
2022/10/08 05:42:13;;;;;;;11.93;7.63;;;12.50;99.90;;;12.06;100.00;97577.91;4975913;28;20042;-45
2022/10/08 05:44:39;;;;;;;16.30;7.30;;;12.50;99.90;;;12.01;100.00;97584.25;4970547;28;20046;-46
2022/10/08 05:47:14;;;;;;;12.52;7.35;;;12.40;99.90;;;11.98;100.00;97575.59;4971839;28;20034;-43
2022/10/08 05:49:40;;;;;;;10.27;6.70;;;12.40;99.90;;;11.92;100.00;97576.69;4979126;23;20899;-45
2022/10/08 05:52:05;;;;;;;10.18;7.05;;;12.30;99.90;;;11.88;100.00;97575.06;4973222;28;20057;-45
2022/10/08 05:54:31;;;;;;;9.30;6.68;;;12.30;99.90;;;11.81;100.00;97582.38;4971570;28;20191;-45
2022/10/08 05:56:57;;;;;;;11.15;6.53;;;12.30;99.90;;;11.83;100.00;97590.25;4974424;28;20034;-46
2022/10/08 05:59:23;;;;;;;11.55;7.07;;;12.30;99.90;;;11.79;100.00;97592.13;4966833;28;20045;-44
2022/10/08 06:01:49;;;;;;;24.42;8.25;;;12.20;99.90;;;11.77;100.00;97593.09;4959654;28;20167;-46
2022/10/08 06:04:17;;;;;;;8.98;6.60;;;12.20;99.90;;;11.82;100.00;97596.44;4971446;28;20026;-49
2022/10/08 06:06:43;;;;;;;14.80;6.95;;;12.20;99.90;;;11.78;100.00;97598.34;4967162;28;20113;-45
2022/10/08 06:09:17;;;;;;;12.25;7.18;;;12.20;99.90;;;11.85;100.00;97607.75;4974527;28;20138;-45
2022/10/08 06:11:43;;;;;;;13.40;7.03;;;12.30;99.90;;;11.84;100.00;97606.03;4972467;28;20032;-45
2022/10/08 06:14:11;;;;;;;11.27;7.38;;;12.30;99.90;;;11.87;100.00;97604.19;4972385;28;20030;-48
2022/10/08 06:16:38;;;;;;;14.00;7.32;;;12.30;99.90;;;11.88;100.00;97620.00;4969730;28;20468;-46
2022/10/08 06:19:05;;;;;;;14.07;7.85;;;12.30;99.90;;;11.86;100.00;97616.53;4975075;28;20029;-47
2022/10/08 06:21:32;;;;;;;11.77;7.35;;;12.30;99.90;;;11.92;100.00;97621.63;4974962;28;20037;-46
2022/10/08 06:24:02;;;;;;;11.77;7.28;;;12.30;99.90;;;11.92;100.00;97618.97;4954262;28;20053;-45
2022/10/08 06:26:32;;;;;;;11.25;7.30;;;12.40;99.90;;;11.95;100.00;97620.63;4973118;28;20503;-44
2022/10/08 06:28:58;;;;;;;11.38;6.40;;;12.40;99.90;;;11.95;100.00;97626.81;4970111;28;20037;-48
2022/10/08 06:31:24;;;;;;;14.10;7.50;;;12.40;99.90;;;11.99;100.00;97630.19;4973678;28;20027;-47
2022/10/08 06:33:50;;;;;;;16.63;7.35;;;12.40;99.90;;;12.02;100.00;97633.56;4971966;28;20043;-46
2022/10/08 06:36:24;;;;;;;9.80;6.50;;;12.40;99.90;;;12.07;100.00;97630.72;4957363;28;20498;-45
2022/10/08 06:38:54;;;;;;;11.95;6.68;;;12.50;99.90;;;12.13;100.00;97632.25;4971846;28;20440;-49
2022/10/08 06:41:20;;;;;;;10.82;6.22;;;12.50;99.90;;;12.17;100.00;97629.44;4973216;28;20030;-46
2022/10/08 06:43:46;;;;;;;21.80;6.80;;;12.60;99.90;;;12.22;100.00;97631.91;4970563;28;20053;-46
2022/10/08 06:46:12;;;;;;;11.98;5.55;;;12.60;99.90;;;12.19;100.00;97621.47;4972702;28;20066;-46
2022/10/08 06:48:38;;;;;;;10.05;6.00;;;12.70;99.90;;;12.30;100.00;97640.41;4957401;28;20121;-42
2022/10/08 06:51:08;;;;;;;11.68;5.78;;;12.70;99.90;;;12.34;100.00;97644.63;4972132;28;20060;-39
2022/10/08 06:53:34;;;;;;;8.45;5.18;;;12.70;99.90;;;12.37;100.00;97644.50;4955064;28;20038;-45
2022/10/08 06:56:03;;;;;;;14.00;5.75;;;12.80;99.90;;;12.39;100.00;97650.59;4965896;28;20049;-45
2022/10/08 06:58:29;;;;;;;11.43;6.57;;;12.80;99.90;;;12.37;100.00;97635.72;4965335;28;20042;-43
2022/10/08 07:01:13;;;;;;;8.98;5.82;;;12.90;99.90;;;12.45;100.00;97656.56;4966328;28;20101;-47
2022/10/08 07:03:39;;;;;;;11.27;6.07;;;12.90;99.90;;;12.52;100.00;97665.97;4972125;28;20030;-43
2022/10/08 07:06:08;;;;;;;9.35;6.05;;;12.90;99.90;;;12.58;100.00;97663.09;4974281;28;20045;-46
2022/10/08 07:08:37;;;;;;;12.52;5.00;;;13.00;99.90;;;12.63;100.00;97662.91;4965805;28;20030;-45
2022/10/08 07:11:09;;;;;;;12.93;5.40;;;13.10;99.90;;;12.71;100.00;97659.00;4971536;28;20034;-46
2022/10/08 07:13:36;;;;;;;8.82;4.72;;;13.20;99.90;;;12.79;100.00;97667.50;4956787;28;20551;-44
2022/10/08 07:16:04;;;;;;;10.73;4.80;;;13.20;99.90;;;12.88;100.00;97674.19;4957899;28;20039;-45
2022/10/08 07:18:31;;;;;;;10.27;5.85;;;13.30;99.90;;;12.92;100.00;97673.16;4960349;28;20030;-47
2022/10/08 07:20:57;;;;;;;13.00;4.57;;;13.40;99.90;;;13.04;100.00;97673.53;4974974;28;20546;-41
2022/10/08 07:23:23;;;;;;;11.90;4.82;;;13.50;99.90;;;13.11;100.00;97678.50;4971316;28;20126;-45
2022/10/08 07:26:01;;;;;;;15.15;5.35;;;13.60;99.90;;;13.03;100.00;97651.50;4968266;28;20654;-47
2022/10/08 07:28:31;;;;;;;9.35;5.18;;;13.70;99.90;;;13.35;100.00;97678.41;4980159;28;20058;-45
2022/10/08 07:31:01;;;;;;;13.43;4.57;;;13.80;99.90;;;13.48;100.00;97684.91;4971317;28;20066;-45
2022/10/08 07:33:28;;;;;;;8.15;4.43;;;13.90;99.90;;;13.65;100.00;97691.25;4955297;28;20037;-47
2022/10/08 07:35:53;;;;;;;7.43;4.30;;;14.10;99.90;;;13.80;100.00;97694.97;4969463;28;20035;-47
2022/10/08 07:38:19;;;;;;;6.82;4.20;;;14.20;99.90;;;13.94;100.00;97695.22;4974003;28;20038;-46
2022/10/08 07:40:49;;;;;;;10.85;4.50;;;14.40;99.90;;;14.09;100.00;97697.16;4959243;28;20514;-44
2022/10/08 07:43:15;;;;;;;6.93;4.32;;;14.50;99.90;;;14.20;100.00;97704.63;4973296;28;20511;-46
2022/10/08 07:45:44;;;;;;;11.77;4.63;;;14.70;99.90;;;14.17;100.00;97699.47;4965277;28;20218;-47
2022/10/08 07:48:10;;;;;;;9.93;4.30;;;14.70;99.90;;;14.31;100.00;97704.97;4952334;28;20088;-48
2022/10/08 07:50:36;;;;;;;13.18;4.43;;;14.70;99.90;;;14.40;100.00;97700.19;4966716;28;20056;-45
2022/10/08 07:53:01;;;;;;;7.88;3.97;;;14.80;99.90;;;14.47;100.00;97706.91;4970050;28;20038;-46
2022/10/08 07:55:28;;;;;;;11.55;4.45;;;14.90;99.90;;;14.54;100.00;97708.34;4960236;28;20125;-48
2022/10/08 07:57:54;;;;;;;14.68;3.95;;;15.00;99.90;;;14.67;100.00;97709.50;4967608;28;20515;-46
2022/10/08 08:00:19;;;;;;;9.65;3.80;;;15.10;99.90;;;14.89;100.00;97713.75;4973447;28;20107;-45
2022/10/08 08:02:47;;;;;;;10.63;3.53;;;15.30;99.90;;;15.08;100.00;97714.56;4965282;28;20685;-45
2022/10/08 08:05:12;;;;;;;9.80;3.47;;;15.50;99.90;;;15.32;100.00;97716.91;4952282;28;20420;-46
2022/10/08 08:07:38;;;;;;;6.55;3.17;;;15.60;99.90;;;15.45;100.00;97707.38;4974171;28;20045;-47
2022/10/08 08:10:04;;;;;;;9.88;3.58;;;15.80;99.90;;;15.56;100.00;97713.91;4975214;28;20039;-46
2022/10/08 08:12:30;;;;;;;9.90;2.90;;;16.00;99.90;;;15.45;100.00;97717.13;4966630;28;20030;-47
2022/10/08 08:14:56;;;;;;;10.07;3.20;;;16.00;99.90;;;15.23;100.00;97722.69;4955773;28;20042;-48
2022/10/08 08:17:21;;;;;;;7.20;2.78;;;15.80;99.90;;;15.08;100.00;97719.88;4967867;28;20034;-47
2022/10/08 08:19:47;;;;;;;4.97;2.80;;;15.50;99.90;;;14.93;100.00;97730.38;4973426;28;20105;-45
2022/10/08 08:22:13;;;;;;;11.40;2.83;;;15.40;99.90;;;14.73;100.00;97734.03;4973014;28;20022;-47
2022/10/08 08:24:38;;;;;;;10.48;2.88;;;15.20;99.90;;;14.55;100.00;97731.28;4969125;28;20491;-47
2022/10/08 08:27:04;;;;;;;6.38;2.50;;;15.00;99.90;;;14.39;100.00;97736.47;4974612;28;20034;-45
2022/10/08 08:29:30;;;;;;;10.02;2.45;;;14.80;99.90;;;14.37;100.00;97732.16;4968118;28;20987;-46
2022/10/08 08:31:56;;;;;;;6.68;2.70;;;14.80;99.90;;;14.43;100.00;97743.34;4967901;28;20069;-48
2022/10/08 08:34:23;;;;;;;7.68;2.40;;;14.80;99.90;;;14.45;100.00;97737.97;4970351;28;20034;-47
2022/10/08 08:36:52;;;;;;;10.18;2.42;;;14.90;99.90;;;14.54;100.00;97744.66;4966130;28;20047;-49
2022/10/08 08:39:24;;;;;;;6.90;2.13;;;14.90;99.90;;;14.60;100.00;97739.91;4972766;28;20037;-48
2022/10/08 08:42:16;;;;;;;5.97;2.15;;;15.00;99.90;;;14.74;100.00;97751.69;4970975;28;20041;-48
2022/10/08 08:44:47;;;;;;;8.57;2.05;;;15.10;99.90;;;14.70;100.00;97745.66;4971346;28;20034;-46
2022/10/08 08:47:25;;;;;;;8.18;2.30;;;15.10;99.90;;;14.79;99.22;97753.19;4972010;28;20034;-44
2022/10/08 08:49:57;;;;;;;5.18;2.03;;;15.20;99.90;;;14.94;98.23;97751.56;4946810;28;20030;-49
2022/10/08 08:52:28;;;;;;;8.05;1.80;;;15.30;99.90;;;15.07;92.73;97751.81;4971134;28;20032;-48
2022/10/08 08:54:54;;;;;;;5.90;1.80;;;15.50;99.90;;;15.19;96.73;97764.50;4960993;28;20491;-46
2022/10/08 08:57:42;;;;;;;8.98;2.00;;;15.50;99.90;;;15.31;97.10;97756.84;4954743;28;20044;-48
2022/10/08 09:00:14;;;;;;;7.25;2.10;;;15.60;99.90;;;15.34;87.89;97762.84;4955191;28;20022;-45
2022/10/08 09:03:12;;;;;;;5.32;1.95;;;15.70;99.90;;;15.45;92.42;97754.34;4966510;28;20030;-46
2022/10/08 09:05:41;;;;;;;5.95;1.88;;;15.80;99.90;;;15.52;88.74;97754.88;4890666;29;20059;-45
2022/10/08 09:08:32;;;;;;;12.43;2.10;;;16.00;99.90;;;15.56;87.44;97767.06;4963363;28;22316;-47
2022/10/08 09:11:01;;;;;;;8.52;3.13;;;16.10;99.90;;;15.65;86.41;97758.66;4966902;28;20057;-55
2022/10/08 09:13:44;;;;;;;6.95;1.90;;;16.10;99.90;;;15.62;88.45;97753.50;4952002;28;20065;-54
2022/10/08 09:16:14;;;;;;;12.80;2.30;;;16.10;99.90;;;15.64;85.27;97755.13;4966998;28;20623;-52
2022/10/08 09:18:49;;;;;;;10.88;2.60;;;16.00;99.90;;;15.59;83.81;97757.16;4967610;23;20077;-56
2022/10/08 09:21:15;;;;;;;5.32;1.80;;;16.10;99.90;;;15.70;84.43;97753.94;4988001;28;20042;-57
2022/10/08 09:23:40;;;;;;;6.00;2.13;;;16.10;99.90;;;15.62;80.82;97764.97;4976734;28;20030;-57
2022/10/08 09:26:21;;;;;;;6.90;2.00;;;16.00;99.90;;;15.64;87.25;97764.91;4986058;28;20561;-58
2022/10/08 09:28:48;;;;;;;10.02;1.80;;;16.00;99.90;;;15.59;97.53;97761.63;4988148;28;20034;-57
2022/10/08 09:31:38;;;;;;;8.50;1.80;;;15.90;99.90;;;15.62;93.31;97761.47;4978240;28;20420;-58
2022/10/08 09:34:12;;;;;;;8.38;2.33;;;15.90;99.90;;;15.55;91.68;97768.88;4980171;28;20049;-58
2022/10/08 09:37:00;;;;;;;7.85;2.00;;;15.90;99.90;;;15.55;85.71;97768.88;4981334;28;20112;-58
2022/10/08 09:39:31;;;;;;;7.05;2.05;;;15.90;99.90;;;15.44;80.69;97773.91;4971704;28;20050;-58
2022/10/08 09:42:06;;;;;;;8.40;1.98;;;15.90;99.90;;;15.39;78.40;97770.59;4976214;28;20034;-58
2022/10/08 09:44:42;;;;;;;6.50;1.70;;;15.80;99.90;;;15.40;81.01;97777.66;4987891;28;20030;-58
2022/10/08 09:47:12;;;;;;;8.85;2.50;;;15.80;99.90;;;15.27;74.94;97777.38;4990444;28;20048;-58
2022/10/08 09:49:39;;;;;;;5.95;2.20;;;15.70;99.90;;;15.28;76.11;97779.97;4973238;28;20427;-58
2022/10/08 09:52:21;;;;;;;3.45;1.45;;;15.70;99.90;;;15.40;81.96;97780.31;4994947;28;21200;-58
2022/10/08 09:54:56;;;;;;;4.38;1.75;;;15.80;99.90;;;15.42;90.50;97773.97;4993736;28;20105;-58
2022/10/08 09:57:22;;;;;;;6.07;1.90;;;15.90;99.90;;;15.46;85.11;97777.34;4995100;28;20073;-58
2022/10/08 09:59:56;;;;;;;4.70;1.63;;;15.90;99.90;;;15.57;82.84;97782.94;4993209;28;20120;-58
2022/10/08 10:02:35;;;;;;;8.38;2.22;;;15.90;99.90;;;15.53;77.75;97781.41;4976825;28;20033;-58
2022/10/08 10:05:04;;;;;;;11.30;2.38;;;15.90;99.90;;;15.46;74.20;97791.47;4988917;28;20041;-57
2022/10/08 10:07:43;;;;;;;9.30;2.13;;;15.90;99.90;;;15.40;76.06;97786.47;4991170;28;20099;-58
2022/10/08 10:10:33;;;;;;;14.02;2.60;;;15.90;99.90;;;15.49;82.25;97781.63;4992353;28;20037;-58
2022/10/08 10:13:19;;;;;;;12.52;2.03;;;15.90;99.90;;;15.37;84.78;97789.28;4976810;28;20377;-58
2022/10/08 10:16:24;;;;;;;6.35;1.98;;;15.80;99.90;;;15.09;88.71;97768.53;4992067;28;20052;-58
2022/10/08 10:19:27;;;;;;;6.43;2.08;;;15.70;99.90;;;15.17;84.40;97790.28;4966595;28;20137;-58
2022/10/08 10:22:10;;;;;;;9.13;1.98;;;15.60;99.90;;;15.12;83.60;97788.78;4975669;28;20053;-59
2022/10/08 10:24:51;;;;;;;4.00;1.40;;;15.60;99.90;;;15.08;84.44;97793.38;4975474;28;20039;-59
2022/10/08 10:27:27;;;;;;;7.45;2.10;;;15.50;99.90;;;14.98;83.83;97785.00;4993637;28;20054;-59